Time;durP1;ratioP1;P1;durP2;ratioP2;P2;SDS_P1;SDS_P2;PMS_P1;PMS_P2;Temp;Humidity;BMP_temperature;BMP_pressure;BME280_temperature;BME280_humidity;BME280_pressure;Samples;Min_cycle;Max_cycle;Signal;HPM_P1;HPM_P2
2023/08/10 00:00:23;;;;;;;2.50;1.88;;;;;;;;;;10429372;28;20501;-83
2023/08/10 00:05:25;;;;;;;2.75;2.40;;;;;;;;;;10427622;28;20405;-82
2023/08/10 00:10:29;;;;;;;3.08;2.67;;;;;;;;;;10434987;28;20466;-82
2023/08/10 00:15:32;;;;;;;3.30;3.00;;;;;;;;;;10431657;28;20454;-83
2023/08/10 00:20:35;;;;;;;3.45;2.78;;;;;;;;;;10431678;28;20453;-82
2023/08/10 00:25:39;;;;;;;2.83;2.50;;;;;;;;;;10434054;28;20400;-82
2023/08/10 00:30:41;;;;;;;3.37;2.63;;;;;;;;;;10426631;28;20459;-82
2023/08/10 00:35:43;;;;;;;3.03;2.28;;;;;;;;;;10434047;28;20465;-82
2023/08/10 00:40:47;;;;;;;3.10;2.67;;;;;;;;;;10430618;28;20776;-82
2023/08/10 00:45:49;;;;;;;2.95;2.65;;;;;;;;;;10430201;28;20947;-82
2023/08/10 00:50:53;;;;;;;2.80;2.50;;;;;;;;;;10438185;23;20498;-83
2023/08/10 00:55:58;;;;;;;3.92;2.90;;;;;;;;;;10423758;28;20471;-82
2023/08/10 01:01:00;;;;;;;7.05;3.38;;;;;;;;;;10429306;28;20461;-81
2023/08/10 01:06:10;;;;;;;3.60;3.17;;;;;;;;;;10428126;28;20403;-81
2023/08/10 01:11:23;;;;;;;3.63;3.30;;;;;;;;;;10425342;28;20440;-81
2023/08/10 01:16:28;;;;;;;5.40;3.17;;;;;;;;;;10432773;28;20434;-81
2023/08/10 01:21:38;;;;;;;3.78;3.45;;;;;;;;;;10429777;28;20417;-81
2023/08/10 01:26:43;;;;;;;4.27;3.27;;;;;;;;;;10429190;28;20491;-81
2023/08/10 01:31:45;;;;;;;4.88;3.42;;;;;;;;;;10427620;28;20413;-82
2023/08/10 01:36:47;;;;;;;4.10;3.17;;;;;;;;;;10430767;28;20403;-81
2023/08/10 01:41:51;;;;;;;4.72;3.10;;;;;;;;;;10431402;28;20516;-81
2023/08/10 01:46:56;;;;;;;4.10;2.55;;;;;;;;;;10432015;28;20507;-82
2023/08/10 01:52:00;;;;;;;3.27;2.50;;;;;;;;;;10429697;28;20407;-82
2023/08/10 01:57:03;;;;;;;4.70;2.90;;;;;;;;;;10430116;28;20428;-82
2023/08/10 02:02:06;;;;;;;3.53;3.15;;;;;;;;;;10430778;28;20459;-82
2023/08/10 02:07:08;;;;;;;5.27;3.43;;;;;;;;;;10427709;28;20535;-81
2023/08/10 02:12:12;;;;;;;3.60;3.30;;;;;;;;;;10429994;28;20421;-81
2023/08/10 02:17:14;;;;;;;4.83;3.30;;;;;;;;;;10426765;28;20958;-81
2023/08/10 02:22:16;;;;;;;3.50;3.17;;;;;;;;;;10429222;28;20490;-81
2023/08/10 02:27:20;;;;;;;4.40;2.80;;;;;;;;;;10430259;28;20415;-81
2023/08/10 02:32:22;;;;;;;3.42;3.13;;;;;;;;;;10429395;28;20417;-81
2023/08/10 02:37:24;;;;;;;3.50;3.20;;;;;;;;;;10427231;28;20412;-81
2023/08/10 02:42:28;;;;;;;4.23;3.30;;;;;;;;;;10434112;28;20474;-81
2023/08/10 02:47:30;;;;;;;4.68;3.13;;;;;;;;;;10427253;28;20408;-81
2023/08/10 02:52:32;;;;;;;5.20;3.40;;;;;;;;;;10427591;28;20432;-82
2023/08/10 02:57:36;;;;;;;4.65;3.13;;;;;;;;;;10427673;28;20832;-81
2023/08/10 03:02:39;;;;;;;3.78;3.40;;;;;;;;;;10425815;28;20737;-82
2023/08/10 03:07:41;;;;;;;4.40;3.08;;;;;;;;;;10427730;28;20780;-81
2023/08/10 03:12:45;;;;;;;3.00;2.70;;;;;;;;;;10428530;28;20444;-81
2023/08/10 03:17:47;;;;;;;4.38;3.05;;;;;;;;;;10427345;28;20414;-81
2023/08/10 03:22:49;;;;;;;3.20;2.90;;;;;;;;;;10429832;28;20457;-81
2023/08/10 03:27:53;;;;;;;3.70;3.28;;;;;;;;;;10433672;28;20421;-81
2023/08/10 03:32:55;;;;;;;3.97;2.80;;;;;;;;;;10434741;28;20829;-81
2023/08/10 03:37:58;;;;;;;3.47;2.97;;;;;;;;;;10434682;28;20403;-81
2023/08/10 03:43:01;;;;;;;3.97;3.00;;;;;;;;;;10441331;28;20925;-81
2023/08/10 03:48:05;;;;;;;4.97;3.37;;;;;;;;;;10434318;28;20396;-81
2023/08/10 03:53:07;;;;;;;4.47;3.50;;;;;;;;;;10428202;28;20433;-82
2023/08/10 03:58:11;;;;;;;5.15;4.43;;;;;;;;;;10435218;28;20417;-82
2023/08/10 04:03:13;;;;;;;4.80;4.30;;;;;;;;;;10432990;28;20832;-82
2023/08/10 04:08:15;;;;;;;4.80;4.40;;;;;;;;;;10432425;28;20504;-83
2023/08/10 04:13:19;;;;;;;5.88;4.47;;;;;;;;;;10429824;28;20471;-81
2023/08/10 04:18:21;;;;;;;6.17;4.10;;;;;;;;;;10433148;28;20408;-82
2023/08/10 04:23:23;;;;;;;5.15;4.00;;;;;;;;;;10431983;28;20882;-82
2023/08/10 04:28:27;;;;;;;4.57;4.00;;;;;;;;;;10431796;28;20539;-83
2023/08/10 04:33:31;;;;;;;5.03;3.75;;;;;;;;;;10431461;28;20819;-81
2023/08/10 04:38:33;;;;;;;4.75;3.85;;;;;;;;;;10430932;28;20405;-82
2023/08/10 04:43:37;;;;;;;5.20;3.90;;;;;;;;;;10438263;28;20416;-82
2023/08/10 04:48:40;;;;;;;6.45;3.58;;;;;;;;;;10430640;28;20907;-82
2023/08/10 04:53:42;;;;;;;3.25;3.00;;;;;;;;;;10432130;28;20809;-82
2023/08/10 04:58:45;;;;;;;2.95;2.63;;;;;;;;;;10430322;28;20458;-82
2023/08/10 05:03:48;;;;;;;3.17;2.70;;;;;;;;;;10429629;28;20851;-82
2023/08/10 05:08:50;;;;;;;4.25;2.42;;;;;;;;;;10432085;28;20412;-82
2023/08/10 05:13:54;;;;;;;2.80;2.10;;;;;;;;;;10435373;28;20429;-82
2023/08/10 05:18:56;;;;;;;2.90;2.38;;;;;;;;;;10431586;28;20462;-82
2023/08/10 05:23:59;;;;;;;3.17;1.90;;;;;;;;;;10428381;28;20783;-82
2023/08/10 05:29:03;;;;;;;2.90;1.98;;;;;;;;;;10431975;28;20745;-82
2023/08/10 05:34:05;;;;;;;1.80;1.60;;;;;;;;;;10430595;28;20517;-82
2023/08/10 05:39:08;;;;;;;2.50;2.05;;;;;;;;;;10428853;28;20468;-82
2023/08/10 05:44:12;;;;;;;3.17;2.00;;;;;;;;;;10434258;28;20467;-82
2023/08/10 05:49:15;;;;;;;3.00;1.65;;;;;;;;;;10430241;28;20473;-81
2023/08/10 05:54:17;;;;;;;2.10;1.70;;;;;;;;;;10427368;28;20405;-82
2023/08/10 05:59:21;;;;;;;2.33;1.70;;;;;;;;;;10433072;28;20473;-82
2023/08/10 06:04:24;;;;;;;2.10;1.83;;;;;;;;;;10408797;28;20435;-82
2023/08/10 06:09:26;;;;;;;2.95;1.80;;;;;;;;;;10408193;28;20796;-82
2023/08/10 06:14:30;;;;;;;3.60;1.77;;;;;;;;;;10429512;28;20910;-82
2023/08/10 06:19:32;;;;;;;3.50;1.77;;;;;;;;;;10407272;28;20977;-81
2023/08/10 06:24:35;;;;;;;3.67;1.70;;;;;;;;;;10426325;28;20409;-82
2023/08/10 06:29:40;;;;;;;2.10;1.63;;;;;;;;;;10418793;28;20504;-82
2023/08/10 06:34:42;;;;;;;3.13;1.60;;;;;;;;;;10426037;28;20405;-82
2023/08/10 06:39:46;;;;;;;3.55;1.90;;;;;;;;;;10407454;28;20425;-82
2023/08/10 06:44:49;;;;;;;2.72;1.55;;;;;;;;;;10426493;28;20459;-82
2023/08/10 06:49:52;;;;;;;1.90;1.70;;;;;;;;;;10407192;28;20417;-82
2023/08/10 06:54:54;;;;;;;3.17;1.58;;;;;;;;;;10418071;28;20568;-82
2023/08/10 06:59:58;;;;;;;3.43;1.60;;;;;;;;;;10431785;28;20475;-82
2023/08/10 07:05:00;;;;;;;1.73;1.50;;;;;;;;;;10414683;28;20397;-81
2023/08/10 07:10:05;;;;;;;2.73;1.53;;;;;;;;;;10423820;28;20409;-82
2023/08/10 07:15:09;;;;;;;2.23;1.53;;;;;;;;;;10432993;28;20405;-82
2023/08/10 07:20:13;;;;;;;4.40;1.75;;;;;;;;;;10433105;28;20444;-82
2023/08/10 07:25:16;;;;;;;2.35;1.58;;;;;;;;;;10414855;28;20471;-82
2023/08/10 07:30:20;;;;;;;2.50;2.00;;;;;;;;;;10432080;28;20419;-81
2023/08/10 07:35:23;;;;;;;2.72;1.50;;;;;;;;;;10413736;28;20949;-82
2023/08/10 07:40:26;;;;;;;3.85;1.70;;;;;;;;;;10430236;28;20500;-82
2023/08/10 07:45:29;;;;;;;3.17;1.50;;;;;;;;;;10429475;28;20407;-82
2023/08/10 07:50:32;;;;;;;3.75;1.77;;;;;;;;;;10412930;28;20413;-82
2023/08/10 07:55:34;;;;;;;5.80;1.70;;;;;;;;;;10427906;28;20756;-82
2023/08/10 08:00:38;;;;;;;3.35;2.00;;;;;;;;;;10433664;28;20449;-80
2023/08/10 08:05:41;;;;;;;2.53;1.50;;;;;;;;;;10423914;28;20455;-80
2023/08/10 08:10:44;;;;;;;4.25;1.60;;;;;;;;;;10431103;28;20533;-80
2023/08/10 08:15:47;;;;;;;3.28;1.70;;;;;;;;;;10430537;28;20457;-81
2023/08/10 08:20:50;;;;;;;2.22;1.60;;;;;;;;;;10426954;28;20922;-82
2023/08/10 08:25:52;;;;;;;2.20;1.60;;;;;;;;;;10430400;28;20440;-82
2023/08/10 08:30:56;;;;;;;2.35;1.40;;;;;;;;;;10428597;28;20471;-82
2023/08/10 08:35:58;;;;;;;2.40;1.60;;;;;;;;;;10433750;28;20967;-82
2023/08/10 08:41:05;;;;;;;3.60;1.50;;;;;;;;;;10431149;28;20579;-82
2023/08/10 08:46:11;;;;;;;1.65;1.50;;;;;;;;;;10433201;28;20419;-83
2023/08/10 08:51:13;;;;;;;2.28;1.60;;;;;;;;;;10410313;28;20499;-82
2023/08/10 08:56:16;;;;;;;2.53;1.42;;;;;;;;;;10410553;28;20405;-82
2023/08/10 09:01:20;;;;;;;3.90;1.60;;;;;;;;;;10433141;28;20455;-82
2023/08/10 09:06:23;;;;;;;1.90;1.30;;;;;;;;;;10410305;28;20767;-82
2023/08/10 09:11:25;;;;;;;3.58;1.60;;;;;;;;;;10423833;28;20400;-82
2023/08/10 09:16:29;;;;;;;2.30;1.40;;;;;;;;;;10434722;28;20434;-83
2023/08/10 09:21:34;;;;;;;3.40;1.30;;;;;;;;;;10427086;28;20460;-82
2023/08/10 09:26:36;;;;;;;2.72;1.42;;;;;;;;;;10409255;28;20409;-82
2023/08/10 09:31:43;;;;;;;2.17;1.30;;;;;;;;;;10430719;28;20421;-82
2023/08/10 09:36:53;;;;;;;1.88;1.50;;;;;;;;;;10409151;28;20463;-82
2023/08/10 09:41:56;;;;;;;2.65;1.60;;;;;;;;;;10412334;28;20918;-82
2023/08/10 09:47:00;;;;;;;1.40;1.30;;;;;;;;;;10430726;28;20413;-83
2023/08/10 09:52:02;;;;;;;1.87;1.40;;;;;;;;;;10429388;28;20828;-82
2023/08/10 09:57:05;;;;;;;1.92;1.48;;;;;;;;;;10429016;28;20426;-83
2023/08/10 10:02:10;;;;;;;1.57;1.30;;;;;;;;;;10426652;28;20511;-83
2023/08/10 10:07:14;;;;;;;1.97;1.30;;;;;;;;;;10429115;28;20404;-82
2023/08/10 10:12:17;;;;;;;1.90;1.38;;;;;;;;;;10430771;28;20774;-82
2023/08/10 10:17:21;;;;;;;1.57;1.40;;;;;;;;;;10429327;28;20889;-82
2023/08/10 10:22:23;;;;;;;2.85;1.40;;;;;;;;;;10428224;28;20433;-82
2023/08/10 10:27:39;;;;;;;2.90;1.50;;;;;;;;;;10429187;28;20468;-83
2023/08/10 10:32:45;;;;;;;2.47;1.50;;;;;;;;;;10428551;28;20440;-82
2023/08/10 10:37:54;;;;;;;3.22;1.70;;;;;;;;;;10415551;28;20406;-83
2023/08/10 10:43:07;;;;;;;4.13;1.83;;;;;;;;;;10436346;28;20417;-83
2023/08/10 10:48:12;;;;;;;2.05;1.42;;;;;;;;;;10436254;28;20820;-82
2023/08/10 10:53:17;;;;;;;2.28;1.70;;;;;;;;;;10436266;28;20471;-82
2023/08/10 10:58:19;;;;;;;3.63;1.73;;;;;;;;;;10438502;28;20958;-82
2023/08/10 11:03:24;;;;;;;3.00;1.73;;;;;;;;;;10435660;28;20481;-83
2023/08/10 11:08:26;;;;;;;2.10;1.87;;;;;;;;;;10436285;28;20406;-83
2023/08/10 11:13:29;;;;;;;2.03;1.57;;;;;;;;;;10432815;28;20498;-82
2023/08/10 11:18:32;;;;;;;1.63;1.52;;;;;;;;;;10434695;28;20408;-82
2023/08/10 11:23:35;;;;;;;1.43;1.30;;;;;;;;;;10436096;28;20483;-83
2023/08/10 11:28:37;;;;;;;2.22;1.50;;;;;;;;;;10438063;28;20465;-83
2023/08/10 11:33:41;;;;;;;3.05;1.50;;;;;;;;;;10434713;28;20467;-83
2023/08/10 11:38:45;;;;;;;1.85;1.40;;;;;;;;;;10433112;28;20412;-82
2023/08/10 11:43:48;;;;;;;2.03;1.70;;;;;;;;;;10432620;28;20447;-82
2023/08/10 11:48:53;;;;;;;1.60;1.38;;;;;;;;;;10434134;28;20405;-82
2023/08/10 11:53:55;;;;;;;3.13;2.03;;;;;;;;;;10433510;28;20442;-82
2023/08/10 11:58:58;;;;;;;2.45;1.50;;;;;;;;;;10438409;28;20965;-82
2023/08/10 12:04:02;;;;;;;1.65;1.25;;;;;;;;;;10433607;28;20429;-82
2023/08/10 12:09:10;;;;;;;2.00;1.42;;;;;;;;;;10432484;28;20426;-82
2023/08/10 12:14:12;;;;;;;1.50;1.30;;;;;;;;;;10438411;28;20460;-82
2023/08/10 12:19:16;;;;;;;1.60;1.50;;;;;;;;;;10431998;28;20468;-82
2023/08/10 12:24:19;;;;;;;1.70;1.40;;;;;;;;;;10433902;28;20880;-83
2023/08/10 12:29:21;;;;;;;2.00;1.40;;;;;;;;;;10434557;28;20469;-82
2023/08/10 12:34:25;;;;;;;1.70;1.60;;;;;;;;;;10431784;28;20416;-82
2023/08/10 12:39:27;;;;;;;1.95;1.30;;;;;;;;;;10433932;28;20405;-82
2023/08/10 12:44:30;;;;;;;2.58;1.50;;;;;;;;;;10433206;28;20419;-83
2023/08/10 12:49:33;;;;;;;2.60;1.60;;;;;;;;;;10432184;28;20791;-82
2023/08/10 12:54:36;;;;;;;1.50;1.40;;;;;;;;;;10429884;28;20403;-82
2023/08/10 12:59:38;;;;;;;3.90;1.50;;;;;;;;;;10429918;28;20774;-83
2023/08/10 13:04:41;;;;;;;2.22;1.50;;;;;;;;;;10431997;28;20558;-83
2023/08/10 13:09:44;;;;;;;1.67;1.50;;;;;;;;;;10429934;28;20465;-82
2023/08/10 13:14:46;;;;;;;2.17;1.40;;;;;;;;;;10432540;28;20411;-83
2023/08/10 13:19:51;;;;;;;1.13;1.10;;;;;;;;;;10431633;28;20819;-82
2023/08/10 13:24:54;;;;;;;2.30;1.47;;;;;;;;;;10429549;28;20913;-83
2023/08/10 13:29:56;;;;;;;1.40;1.20;;;;;;;;;;10435735;28;20438;-83
2023/08/10 13:35:00;;;;;;;1.40;1.20;;;;;;;;;;10429954;28;20429;-83
2023/08/10 13:40:02;;;;;;;1.60;1.38;;;;;;;;;;10429311;28;20463;-83
2023/08/10 13:45:06;;;;;;;1.38;1.27;;;;;;;;;;10428802;28;20429;-83
2023/08/10 13:50:13;;;;;;;1.63;1.53;;;;;;;;;;10428517;28;20581;-82
2023/08/10 13:55:16;;;;;;;1.38;1.27;;;;;;;;;;10430152;28;20794;-83
2023/08/10 14:00:18;;;;;;;1.50;1.40;;;;;;;;;;10430345;28;20467;-83
2023/08/10 14:05:22;;;;;;;1.40;1.30;;;;;;;;;;10428975;28;20921;-83
2023/08/10 14:10:25;;;;;;;1.30;1.20;;;;;;;;;;10429924;28;20422;-82
2023/08/10 14:15:27;;;;;;;1.87;1.33;;;;;;;;;;10431903;28;20413;-82
2023/08/10 14:20:31;;;;;;;2.30;1.20;;;;;;;;;;10427736;28;20750;-83
2023/08/10 14:25:33;;;;;;;1.43;1.20;;;;;;;;;;10428734;28;20457;-83
2023/08/10 14:30:35;;;;;;;4.03;1.30;;;;;;;;;;10427238;28;20971;-83
2023/08/10 14:35:39;;;;;;;1.87;1.10;;;;;;;;;;10428395;28;20879;-83
2023/08/10 14:40:41;;;;;;;2.33;1.27;;;;;;;;;;10427865;28;20404;-82
2023/08/10 14:45:43;;;;;;;2.55;1.60;;;;;;;;;;10430176;28;20488;-83
2023/08/10 14:50:47;;;;;;;1.35;1.23;;;;;;;;;;10427647;28;21050;-83
2023/08/10 14:55:49;;;;;;;1.20;1.10;;;;;;;;;;10429754;28;20445;-83
2023/08/10 15:00:53;;;;;;;2.70;1.30;;;;;;;;;;10430331;28;20622;-82
2023/08/10 15:06:02;;;;;;;1.40;1.30;;;;;;;;;;10428669;28;20449;-83
2023/08/10 15:11:05;;;;;;;3.63;1.20;;;;;;;;;;10428079;28;20950;-82
2023/08/10 15:16:07;;;;;;;1.60;1.40;;;;;;;;;;10424253;28;20414;-83
2023/08/10 15:21:11;;;;;;;2.40;1.37;;;;;;;;;;10432216;28;20477;-82
2023/08/10 15:26:13;;;;;;;2.60;1.52;;;;;;;;;;10435041;28;20432;-82
2023/08/10 15:31:15;;;;;;;1.70;1.20;;;;;;;;;;10433932;28;20399;-82
2023/08/10 15:36:19;;;;;;;2.75;1.30;;;;;;;;;;10434897;28;20464;-82
2023/08/10 15:41:21;;;;;;;1.40;1.10;;;;;;;;;;10433699;28;20404;-82
2023/08/10 15:46:24;;;;;;;2.00;1.20;;;;;;;;;;10431613;28;20878;-82
2023/08/10 15:51:27;;;;;;;2.00;1.20;;;;;;;;;;10434170;28;20483;-82
2023/08/10 15:56:30;;;;;;;1.20;1.10;;;;;;;;;;10434650;28;20412;-82
2023/08/10 16:01:32;;;;;;;2.80;1.20;;;;;;;;;;10437958;28;20886;-82
2023/08/10 16:06:38;;;;;;;3.97;1.40;;;;;;;;;;10435058;28;20481;-82
2023/08/10 16:11:41;;;;;;;2.28;1.30;;;;;;;;;;10433044;28;20412;-82
2023/08/10 16:16:43;;;;;;;2.90;1.20;;;;;;;;;;10431571;28;20913;-83
2023/08/10 16:21:47;;;;;;;4.43;1.45;;;;;;;;;;10432633;28;20463;-84
2023/08/10 16:26:49;;;;;;;5.13;1.40;;;;;;;;;;10437635;28;20549;-82
2023/08/10 16:31:52;;;;;;;2.70;1.40;;;;;;;;;;10433098;28;20566;-82
2023/08/10 16:36:55;;;;;;;1.83;1.20;;;;;;;;;;10433259;28;20469;-82
2023/08/10 16:41:58;;;;;;;1.55;1.23;;;;;;;;;;10431620;28;20765;-82
2023/08/10 16:47:00;;;;;;;1.25;1.15;;;;;;;;;;10433443;28;20808;-82
2023/08/10 16:52:04;;;;;;;1.98;1.20;;;;;;;;;;10431919;28;20449;-81
2023/08/10 16:57:06;;;;;;;1.83;1.13;;;;;;;;;;10433156;28;21147;-82
2023/08/10 17:02:09;;;;;;;1.55;1.40;;;;;;;;;;10428807;28;20459;-82
2023/08/10 17:07:12;;;;;;;2.90;1.40;;;;;;;;;;10431616;28;20449;-82
2023/08/10 17:12:15;;;;;;;1.73;1.30;;;;;;;;;;10433659;28;20419;-82
2023/08/10 17:17:17;;;;;;;2.53;1.67;;;;;;;;;;10431248;28;20399;-81
2023/08/10 17:22:20;;;;;;;2.03;1.60;;;;;;;;;;10429198;28;20417;-82
2023/08/10 17:27:23;;;;;;;2.17;1.55;;;;;;;;;;10434399;28;20465;-82
2023/08/10 17:32:26;;;;;;;2.33;1.40;;;;;;;;;;10428708;28;20774;-81
2023/08/10 17:37:30;;;;;;;2.63;1.87;;;;;;;;;;10428614;28;20405;-81
2023/08/10 17:42:32;;;;;;;2.33;1.40;;;;;;;;;;10432244;28;20403;-82
2023/08/10 17:47:37;;;;;;;2.47;1.48;;;;;;;;;;10427762;28;20403;-82
2023/08/10 17:52:41;;;;;;;1.83;1.52;;;;;;;;;;10428556;28;20406;-81
2023/08/10 17:57:43;;;;;;;1.70;1.50;;;;;;;;;;10432731;28;20419;-81
2023/08/10 18:02:45;;;;;;;2.90;1.40;;;;;;;;;;10427304;28;20480;-82
2023/08/10 18:07:49;;;;;;;2.23;1.50;;;;;;;;;;10430295;28;20754;-81
2023/08/10 18:12:51;;;;;;;2.05;1.20;;;;;;;;;;10428301;28;20413;-81
2023/08/10 18:17:53;;;;;;;2.22;1.45;;;;;;;;;;10427919;28;20840;-82
2023/08/10 18:22:57;;;;;;;1.97;1.40;;;;;;;;;;10430027;28;20408;-81
2023/08/10 18:27:59;;;;;;;1.50;1.30;;;;;;;;;;10430120;28;20413;-82
2023/08/10 18:33:02;;;;;;;2.40;1.30;;;;;;;;;;10429408;28;20771;-81
2023/08/10 18:38:07;;;;;;;2.00;1.30;;;;;;;;;;10426228;28;20409;-81
2023/08/10 18:43:09;;;;;;;1.30;1.20;;;;;;;;;;10429136;28;20750;-81
2023/08/10 18:48:11;;;;;;;2.63;1.30;;;;;;;;;;10429565;28;20404;-82
2023/08/10 18:53:15;;;;;;;1.97;1.50;;;;;;;;;;10427313;28;20463;-82
2023/08/10 18:58:18;;;;;;;3.92;1.55;;;;;;;;;;10426602;28;20534;-81
2023/08/10 19:03:21;;;;;;;2.40;1.60;;;;;;;;;;10437210;28;20419;-81
2023/08/10 19:08:25;;;;;;;4.20;1.70;;;;;;;;;;10433747;28;20507;-82
2023/08/10 19:13:27;;;;;;;2.70;1.80;;;;;;;;;;10424474;28;20460;-82
2023/08/10 19:18:30;;;;;;;3.40;1.60;;;;;;;;;;10433633;28;20463;-81
2023/08/10 19:23:34;;;;;;;4.28;1.60;;;;;;;;;;10415325;28;20425;-82
2023/08/10 19:28:37;;;;;;;4.15;1.50;;;;;;;;;;10437681;28;20479;-81
2023/08/10 19:33:40;;;;;;;3.05;1.40;;;;;;;;;;10414253;28;20511;-82
2023/08/10 19:38:43;;;;;;;3.17;1.55;;;;;;;;;;10422200;28;20471;-82
2023/08/10 19:43:46;;;;;;;3.00;1.50;;;;;;;;;;10422004;28;20451;-82
2023/08/10 19:48:48;;;;;;;5.93;1.80;;;;;;;;;;10414782;28;20421;-82
2023/08/10 19:53:53;;;;;;;4.30;1.52;;;;;;;;;;10413116;28;20536;-81
2023/08/10 19:58:55;;;;;;;1.60;1.40;;;;;;;;;;10435290;28;20414;-82
2023/08/10 20:03:57;;;;;;;1.80;1.50;;;;;;;;;;10434248;28;20415;-81
2023/08/10 20:09:03;;;;;;;3.00;1.60;;;;;;;;;;10431708;28;20414;-81
2023/08/10 20:14:05;;;;;;;2.57;1.60;;;;;;;;;;10431202;28;20780;-81
2023/08/10 20:19:08;;;;;;;4.38;1.90;;;;;;;;;;10412185;28;20502;-82
2023/08/10 20:24:11;;;;;;;5.35;2.25;;;;;;;;;;10419534;28;20465;-82
2023/08/10 20:29:14;;;;;;;3.85;2.40;;;;;;;;;;10438427;28;20436;-82
2023/08/10 20:34:17;;;;;;;4.10;2.42;;;;;;;;;;10434162;28;20411;-81
2023/08/10 20:39:21;;;;;;;3.25;2.40;;;;;;;;;;10430758;28;20439;-81
2023/08/10 20:44:23;;;;;;;2.85;2.42;;;;;;;;;;10436322;28;20427;-81
2023/08/10 20:49:25;;;;;;;2.88;2.10;;;;;;;;;;10430490;28;20417;-82
2023/08/10 20:54:29;;;;;;;3.78;2.35;;;;;;;;;;10432760;28;20557;-81
2023/08/10 20:59:34;;;;;;;5.20;3.05;;;;;;;;;;10437015;28;20825;-81
2023/08/10 21:04:37;;;;;;;3.60;2.60;;;;;;;;;;10429176;28;20456;-81
2023/08/10 21:09:40;;;;;;;2.95;2.28;;;;;;;;;;10432579;28;20412;-81
2023/08/10 21:14:43;;;;;;;3.67;2.57;;;;;;;;;;10431388;28;20421;-81
2023/08/10 21:19:45;;;;;;;4.90;2.65;;;;;;;;;;10431019;28;20404;-81
2023/08/10 21:24:49;;;;;;;5.07;3.40;;;;;;;;;;10428399;28;20487;-81
2023/08/10 21:29:51;;;;;;;3.55;2.53;;;;;;;;;;10436130;28;21291;-81
2023/08/10 21:34:53;;;;;;;3.53;2.63;;;;;;;;;;10429479;28;20439;-82
2023/08/10 21:39:57;;;;;;;4.70;2.72;;;;;;;;;;10430829;28;20450;-82
2023/08/10 21:44:59;;;;;;;3.42;2.70;;;;;;;;;;10427183;28;20430;-81
2023/08/10 21:50:01;;;;;;;4.63;2.83;;;;;;;;;;10430716;28;20729;-81
2023/08/10 21:55:06;;;;;;;6.20;3.13;;;;;;;;;;10428891;28;20438;-81
2023/08/10 22:00:11;;;;;;;4.20;3.25;;;;;;;;;;10433670;28;20447;-81
2023/08/10 22:05:14;;;;;;;5.25;3.33;;;;;;;;;;10427630;28;20456;-81
2023/08/10 22:10:17;;;;;;;4.43;3.58;;;;;;;;;;10429935;28;20467;-81
2023/08/10 22:15:20;;;;;;;5.23;3.23;;;;;;;;;;10429833;28;20470;-81
2023/08/10 22:20:23;;;;;;;5.32;3.20;;;;;;;;;;10427185;28;20459;-81
2023/08/10 22:25:27;;;;;;;3.58;3.08;;;;;;;;;;10429211;28;20664;-81
2023/08/10 22:30:29;;;;;;;4.05;3.10;;;;;;;;;;10426279;28;20419;-81
2023/08/10 22:35:31;;;;;;;4.07;3.60;;;;;;;;;;10428087;28;20459;-81
2023/08/10 22:40:35;;;;;;;4.50;3.87;;;;;;;;;;10428370;28;20409;-81
2023/08/10 22:45:37;;;;;;;4.20;3.17;;;;;;;;;;10429591;28;20971;-82
2023/08/10 22:50:40;;;;;;;5.70;3.50;;;;;;;;;;10428468;28;20401;-81
2023/08/10 22:55:43;;;;;;;5.60;3.58;;;;;;;;;;10427361;28;20403;-82
2023/08/10 23:00:46;;;;;;;4.78;3.67;;;;;;;;;;10430576;28;20744;-82
2023/08/10 23:05:48;;;;;;;5.00;3.58;;;;;;;;;;10428219;28;20452;-81
2023/08/10 23:10:53;;;;;;;6.10;3.83;;;;;;;;;;10426965;28;20425;-81
2023/08/10 23:15:56;;;;;;;5.50;3.80;;;;;;;;;;10426616;28;20481;-81
2023/08/10 23:21:00;;;;;;;6.43;3.58;;;;;;;;;;10428438;28;20417;-82
2023/08/10 23:26:04;;;;;;;5.60;3.50;;;;;;;;;;10426678;28;20423;-80
2023/08/10 23:31:07;;;;;;;4.30;3.60;;;;;;;;;;10431333;28;20508;-81
2023/08/10 23:36:09;;;;;;;6.03;3.47;;;;;;;;;;10426241;28;20415;-81
2023/08/10 23:41:13;;;;;;;5.22;3.72;;;;;;;;;;10432312;28;20969;-81
2023/08/10 23:46:15;;;;;;;4.47;3.38;;;;;;;;;;10432537;28;20425;-82
2023/08/10 23:51:17;;;;;;;5.53;3.50;;;;;;;;;;10433501;28;20408;-81
2023/08/10 23:56:21;;;;;;;5.30;3.40;;;;;;;;;;10434066;28;20413;-81
